Horicon, New York
Current Conditions -  °F | °C
As of 8:53 PM on Monday 22 Dec 2014 (Local Time) from KGFL Reporting Station
Overcast Overcast  
Wind Chill: 27°   Ceiling: 5000
Heat Index: 32°   Visibility: 8mi
Dew Point: 27°   Wind: 5mph
Humidity: 82%   Direction: 350°N
Pressure: 30.25"   Gusts: NA
Location:  43.7029°N, 73.6844°W
Report Text: KGFL 230153Z AUTO 35004KT 8SM OVC050 00/M03 A3025 RMK AO2 SLP254 T00001028
Loading
Personal Weather Stations






























Interactive Weather Map New forecast layout! Learn more

10-Day Weather Forecast

Advertisements
Track Severe Weather on mobile